createdAt,value
2018-02-17T00:00:06.933Z,92.18
2018-02-17T00:03:11.921Z,92.18
2018-02-17T00:06:17.433Z,92.18
2018-02-17T00:09:22.750Z,92.12
2018-02-17T00:12:28.293Z,92.11
2018-02-17T00:15:33.847Z,92.13
2018-02-17T00:18:39.369Z,92.24
2018-02-17T00:21:44.921Z,92.06
2018-02-17T00:24:50.434Z,92.12
2018-02-17T00:27:55.830Z,92.10
2018-02-17T00:31:01.341Z,92.08
2018-02-17T00:34:07.566Z,92.07
2018-02-17T00:37:13.125Z,92.04
2018-02-17T00:40:18.681Z,91.87
2018-02-17T00:43:24.202Z,91.80
2018-02-17T00:46:29.782Z,91.75
2018-02-17T00:49:35.310Z,91.67
2018-02-17T00:52:40.856Z,91.68
2018-02-17T00:55:46.362Z,91.62
2018-02-17T00:58:51.919Z,91.65
2018-02-17T01:01:57.423Z,92.71
2018-02-17T01:05:03.033Z,92.41
2018-02-17T01:08:08.594Z,92.53
2018-02-17T01:11:14.179Z,92.94
2018-02-17T01:14:20.484Z,93.00
2018-02-17T01:17:27.102Z,92.90
2018-02-17T01:20:32.987Z,92.97
2018-02-17T01:23:38.556Z,93.13
2018-02-17T01:26:46.987Z,92.91
2018-02-17T01:29:54.211Z,92.94
2018-02-17T01:32:59.772Z,92.81
2018-02-17T01:36:05.303Z,92.83
2018-02-17T01:39:10.875Z,93.18
2018-02-17T01:42:16.262Z,93.03
2018-02-17T01:45:21.785Z,92.88
2018-02-17T01:48:27.297Z,92.94
2018-02-17T01:51:32.848Z,92.85
2018-02-17T01:54:38.209Z,92.81
2018-02-17T01:57:45.925Z,92.85
2018-02-17T02:00:51.494Z,93.07
2018-02-17T02:03:57.047Z,93.01
2018-02-17T02:07:02.699Z,93.00
2018-02-17T02:10:08.035Z,93.12
2018-02-17T02:13:13.604Z,93.00
2018-02-17T02:16:18.869Z,93.03
2018-02-17T02:19:24.479Z,93.10
2018-02-17T02:22:29.990Z,93.07
2018-02-17T02:25:35.544Z,93.02
2018-02-17T02:28:41.033Z,93.14
2018-02-17T02:31:46.593Z,93.24
2018-02-17T02:34:52.134Z,93.07
2018-02-17T02:37:57.690Z,93.12
2018-02-17T02:41:03.286Z,93.07
2018-02-17T02:44:08.839Z,93.06
2018-02-17T02:47:14.110Z,92.96
2018-02-17T02:50:19.716Z,93.11
2018-02-17T02:53:25.256Z,93.03
2018-02-17T02:56:30.835Z,93.12
2018-02-17T02:59:36.117Z,92.87
2018-02-17T03:02:41.703Z,92.85
2018-02-17T03:05:47.223Z,92.74
2018-02-17T03:08:52.774Z,92.79
2018-02-17T03:11:58.172Z,92.79
2018-02-17T03:15:03.579Z,92.72
2018-02-17T03:18:09.102Z,92.68
2018-02-17T03:21:14.685Z,92.74
2018-02-17T03:24:20.336Z,92.70
2018-02-17T03:27:25.780Z,92.59
2018-02-17T03:30:31.446Z,92.69
2018-02-17T03:33:36.884Z,92.59
2018-02-17T03:36:42.456Z,92.53
2018-02-17T03:39:47.968Z,92.63
2018-02-17T03:42:53.558Z,92.68
2018-02-17T03:45:59.067Z,92.74
2018-02-17T03:49:04.609Z,92.74
2018-02-17T03:52:09.875Z,92.75
2018-02-17T03:55:15.428Z,92.81
2018-02-17T03:58:20.984Z,92.80
2018-02-17T04:01:26.537Z,92.75
2018-02-17T04:04:32.061Z,92.80
2018-02-17T04:07:37.657Z,93.00
2018-02-17T04:10:46.070Z,92.99
2018-02-17T04:13:51.613Z,92.97
2018-02-17T04:16:57.129Z,93.00
2018-02-17T04:20:02.689Z,93.04
2018-02-17T04:23:08.201Z,92.91
2018-02-17T04:26:13.742Z,92.97
2018-02-17T04:29:19.254Z,92.92
2018-02-17T04:32:24.822Z,92.97
2018-02-17T04:35:30.349Z,93.05
2018-02-17T04:38:35.768Z,92.97
2018-02-17T04:41:42.106Z,93.05
2018-02-17T04:44:53.426Z,93.00
2018-02-17T04:48:04.377Z,92.87
2018-02-17T04:51:22.422Z,92.92
2018-02-17T04:54:29.228Z,93.09
2018-02-17T05:01:21.590Z,93.09
2018-02-17T05:04:42.541Z,93.08
2018-02-17T05:08:03.739Z,93.09
2018-02-17T05:11:09.166Z,92.94
2018-02-17T05:14:16.339Z,93.11
2018-02-17T05:17:24.710Z,92.99
2018-02-17T05:20:37.660Z,93.03
2018-02-17T05:23:47.919Z,93.21
2018-02-17T05:26:59.753Z,93.28
2018-02-17T05:30:09.597Z,93.42
2018-02-17T05:33:20.525Z,93.43
2018-02-17T05:36:27.484Z,93.37
2018-02-17T05:39:35.318Z,93.51
2018-02-17T05:42:50.566Z,93.47
2018-02-17T05:46:11.599Z,93.54
2018-02-17T05:49:18.113Z,93.70
2018-02-17T05:52:24.897Z,93.65
2018-02-17T05:55:30.462Z,93.77
2018-02-17T05:58:35.975Z,93.66
2018-02-17T06:01:41.665Z,93.79
2018-02-17T06:04:47.137Z,93.56
2018-02-17T06:07:53.378Z,93.70
2018-02-17T06:11:00.682Z,93.45
2018-02-17T06:14:06.043Z,93.80
2018-02-17T06:17:28.593Z,93.67
2018-02-17T06:20:43.725Z,93.69
2018-02-17T06:23:49.289Z,93.26
2018-02-17T06:26:54.848Z,93.61
2018-02-17T06:30:00.389Z,93.58
2018-02-17T06:33:05.942Z,93.66
2018-02-17T06:36:11.455Z,93.64
2018-02-17T06:39:17.131Z,93.81
2018-02-17T06:42:23.313Z,93.64
2018-02-17T06:45:29.036Z,93.64
2018-02-17T06:48:34.567Z,93.72
2018-02-17T06:51:40.128Z,93.61
2018-02-17T06:54:45.674Z,93.69
2018-02-17T06:57:51.222Z,93.79
2018-02-17T07:00:56.759Z,93.79
2018-02-17T07:04:02.324Z,93.76
2018-02-17T07:07:07.892Z,93.63
2018-02-17T07:10:13.427Z,93.72
2018-02-17T07:13:18.985Z,93.80
2018-02-17T07:16:24.518Z,93.86
2018-02-17T07:19:30.075Z,93.85
2018-02-17T07:22:35.604Z,93.72
2018-02-17T07:25:41.213Z,93.46
2018-02-17T07:28:46.786Z,93.16
2018-02-17T07:31:52.435Z,93.09
2018-02-17T07:34:57.970Z,92.97
2018-02-17T07:38:03.534Z,92.92
2018-02-17T07:41:11.109Z,92.89
2018-02-17T07:44:16.625Z,92.84
2018-02-17T07:47:22.238Z,92.86
2018-02-17T07:50:27.823Z,92.87
2018-02-17T07:53:33.332Z,92.84
2018-02-17T07:56:38.884Z,92.85
2018-02-17T07:59:44.435Z,92.86
2018-02-17T08:02:49.983Z,92.87
2018-02-17T08:05:55.489Z,92.91
2018-02-17T08:09:01.050Z,92.92
2018-02-17T08:12:06.494Z,92.96
2018-02-17T08:15:12.121Z,93.00
2018-02-17T08:18:17.689Z,92.98
2018-02-17T08:21:23.234Z,92.98
2018-02-17T08:24:28.796Z,92.91
2018-02-17T08:27:34.301Z,92.91
2018-02-17T08:30:56.134Z,93.04
2018-02-17T08:34:01.976Z,92.94
2018-02-17T08:37:07.483Z,92.97
2018-02-17T08:40:13.079Z,92.91
2018-02-17T08:43:18.662Z,92.86
2018-02-17T08:46:24.209Z,92.89
2018-02-17T08:49:29.773Z,92.93
2018-02-17T08:52:35.337Z,92.92
2018-02-17T08:55:40.886Z,92.87
2018-02-17T08:58:46.430Z,92.82
2018-02-17T09:01:52.014Z,92.82
2018-02-17T09:04:58.418Z,92.76
2018-02-17T09:08:05.249Z,92.73
2018-02-17T09:11:10.949Z,92.64
2018-02-17T09:14:16.490Z,92.60
2018-02-17T09:17:26.610Z,92.53
2018-02-17T09:20:33.277Z,92.48
2018-02-17T09:23:47.285Z,92.46
2018-02-17T09:26:59.074Z,92.47
2018-02-17T09:30:04.606Z,92.38
2018-02-17T09:33:10.280Z,92.38
2018-02-17T09:36:15.727Z,92.37
2018-02-17T09:39:21.243Z,92.35
2018-02-17T09:42:26.794Z,92.39
2018-02-17T09:45:32.677Z,92.40
2018-02-17T09:48:38.257Z,92.34
2018-02-17T09:51:44.595Z,92.43
2018-02-17T09:54:50.796Z,92.31
2018-02-17T09:57:56.389Z,92.25
2018-02-17T10:01:01.929Z,92.25
2018-02-17T10:04:07.761Z,92.17
2018-02-17T10:07:13.280Z,92.14
2018-02-17T10:10:18.942Z,92.17
2018-02-17T10:13:24.514Z,92.17
2018-02-17T10:16:30.222Z,92.20
2018-02-17T10:19:37.383Z,92.11
2018-02-17T10:22:43.347Z,92.10
2018-02-17T10:25:48.786Z,92.08
2018-02-17T10:28:54.394Z,92.00
2018-02-17T10:31:59.976Z,92.04
2018-02-17T10:35:05.496Z,91.99
2018-02-17T10:38:12.706Z,92.05
2018-02-17T10:41:30.860Z,92.05
2018-02-17T10:44:38.699Z,91.97
2018-02-17T10:47:46.190Z,91.97
2018-02-17T10:50:51.715Z,91.96
2018-02-17T10:53:57.287Z,91.99
2018-02-17T10:57:03.049Z,91.83
2018-02-17T11:00:08.593Z,91.92
2018-02-17T11:03:14.110Z,91.95
2018-02-17T11:06:19.684Z,91.93
2018-02-17T11:09:26.567Z,91.88
2018-02-17T11:12:32.119Z,91.92
2018-02-17T11:15:37.539Z,91.83
2018-02-17T11:18:42.950Z,91.66
2018-02-17T11:21:48.369Z,91.68
2018-02-17T11:24:53.934Z,91.65
2018-02-17T11:27:59.461Z,91.61
2018-02-17T11:31:05.046Z,91.58
2018-02-17T11:34:10.599Z,91.66
2018-02-17T11:37:16.150Z,91.74
2018-02-17T11:40:21.737Z,91.75
2018-02-17T11:43:27.259Z,91.65
2018-02-17T11:46:32.813Z,91.69
2018-02-17T11:49:38.346Z,91.58
2018-02-17T11:52:43.793Z,91.47
2018-02-17T11:55:49.179Z,91.42
2018-02-17T12:02:25.498Z,91.41
2018-02-17T12:05:31.070Z,91.35
2018-02-17T12:08:36.746Z,91.21
2018-02-17T12:11:42.273Z,91.31
2018-02-17T12:14:47.830Z,91.24
2018-02-17T12:17:53.390Z,91.32
2018-02-17T12:20:59.079Z,91.24
2018-02-17T12:24:05.078Z,91.33
2018-02-17T12:27:16.988Z,91.33
2018-02-17T12:30:22.566Z,91.32
2018-02-17T12:33:28.130Z,91.33
2018-02-17T12:36:33.688Z,91.35
2018-02-17T12:39:39.192Z,91.36
2018-02-17T12:42:44.793Z,91.33
2018-02-17T12:45:59.772Z,91.41
2018-02-17T12:49:13.951Z,91.36
2018-02-17T12:52:32.821Z,91.36
2018-02-17T12:55:52.111Z,91.41
2018-02-17T13:02:37.076Z,91.33
2018-02-17T13:05:52.848Z,91.22
2018-02-17T13:09:06.619Z,91.23
2018-02-17T13:12:22.817Z,91.21
2018-02-17T13:15:43.473Z,91.22
2018-02-17T13:18:59.119Z,91.07
2018-02-17T13:22:15.476Z,91.08
2018-02-17T13:25:36.885Z,91.07
2018-02-17T13:32:17.136Z,91.05
2018-02-17T13:35:33.411Z,90.90
2018-02-17T13:38:57.976Z,90.98
2018-02-17T13:45:43.067Z,90.86
2018-02-17T13:48:59.896Z,90.88
2018-02-17T13:52:20.842Z,90.83
2018-02-17T13:55:56.619Z,90.88
2018-02-17T13:59:28.551Z,90.85
2018-02-17T14:02:44.425Z,90.79
2018-02-17T14:06:07.565Z,90.55
2018-02-17T14:09:27.147Z,90.61
2018-02-17T14:12:49.354Z,90.78
2018-02-17T14:16:23.988Z,90.71
2018-02-17T14:19:45.504Z,90.80
2018-02-17T14:23:02.187Z,90.76
2018-02-17T14:26:10.201Z,90.74
2018-02-17T14:29:16.301Z,90.77
2018-02-17T14:35:50.723Z,90.90
2018-02-17T14:38:59.520Z,90.70
2018-02-17T14:42:09.537Z,90.73
2018-02-17T14:45:17.585Z,90.61
2018-02-17T14:48:24.736Z,90.69
2018-02-17T14:51:32.101Z,90.75
2018-02-17T14:54:43.880Z,90.88
2018-02-17T14:57:54.182Z,90.78
2018-02-17T15:01:02.552Z,90.85
2018-02-17T15:04:09.318Z,90.87
2018-02-17T15:07:15.858Z,90.98
2018-02-17T15:10:29.030Z,90.99
2018-02-17T15:13:45.731Z,90.90
2018-02-17T15:16:53.790Z,90.87
2018-02-17T15:20:02.225Z,90.82
2018-02-17T15:23:10.334Z,90.83
2018-02-17T15:26:17.060Z,90.71
2018-02-17T15:29:24.363Z,90.82
2018-02-17T15:32:33.892Z,90.93
2018-02-17T15:35:40.113Z,91.06
2018-02-17T15:38:47.895Z,90.92
2018-02-17T15:41:57.785Z,90.88
2018-02-17T15:45:08.924Z,90.84
2018-02-17T15:48:19.429Z,90.68
2018-02-17T15:51:50.546Z,90.64
2018-02-17T15:55:03.835Z,90.71
2018-02-17T15:58:17.373Z,90.92
2018-02-17T16:01:32.019Z,91.01
2018-02-17T16:04:38.450Z,90.83
2018-02-17T16:07:50.877Z,90.71
2018-02-17T16:11:08.498Z,90.70
2018-02-17T16:14:27.585Z,90.78
2018-02-17T16:21:02.742Z,90.73
2018-02-17T16:24:10.499Z,90.74
2018-02-17T16:27:17.385Z,90.84
2018-02-17T16:30:30.292Z,90.71
2018-02-17T16:34:03.947Z,90.71
2018-02-17T16:37:25.527Z,90.65
2018-02-17T16:40:44.994Z,90.69
2018-02-17T16:44:06.372Z,90.67
2018-02-17T16:47:29.400Z,90.68
2018-02-17T16:50:44.395Z,90.70
2018-02-17T16:54:01.705Z,90.66
2018-02-17T16:57:42.182Z,90.78
2018-02-17T17:01:03.944Z,90.71
2018-02-17T17:04:25.800Z,90.54
2018-02-17T17:08:07.384Z,90.67
2018-02-17T17:11:44.421Z,90.68
2018-02-17T17:15:24.903Z,90.58
2018-02-17T17:18:45.987Z,90.40
2018-02-17T17:22:06.519Z,90.47
2018-02-17T17:25:29.638Z,90.44
2018-02-17T17:28:54.847Z,90.37
2018-02-17T17:32:16.686Z,90.12
2018-02-17T17:35:36.460Z,90.26
2018-02-17T17:38:51.683Z,90.30
2018-02-17T17:42:08.371Z,90.09
2018-02-17T17:45:31.853Z,90.12
2018-02-17T17:59:41.957Z,90.03
2018-02-17T18:03:19.316Z,90.12
2018-02-17T18:06:57.580Z,90.25
2018-02-17T18:10:18.902Z,90.30
2018-02-17T18:17:03.015Z,90.20
2018-02-17T18:20:11.159Z,90.38
2018-02-17T18:23:18.602Z,90.45
2018-02-17T18:26:29.011Z,90.27
2018-02-17T18:29:39.225Z,90.46
2018-02-17T18:32:50.407Z,90.45
2018-02-17T18:36:02.119Z,90.48
2018-02-17T18:39:10.821Z,90.39
2018-02-17T18:42:20.852Z,90.60
2018-02-17T18:45:30.426Z,90.68
2018-02-17T18:48:41.377Z,90.86
2018-02-17T18:51:52.673Z,90.75
2018-02-17T18:55:04.404Z,90.89
2018-02-17T18:58:17.823Z,90.87
2018-02-17T19:01:30.253Z,90.93
2018-02-17T19:04:46.305Z,91.01
2018-02-17T19:07:59.438Z,91.21
2018-02-17T19:11:07.870Z,91.16
2018-02-17T19:14:16.470Z,91.35
2018-02-17T19:17:26.095Z,91.66
2018-02-17T19:20:37.679Z,91.69
2018-02-17T19:23:51.449Z,91.97
2018-02-17T19:27:01.698Z,91.76
2018-02-17T19:30:09.479Z,92.17
2018-02-17T19:33:22.425Z,91.66
2018-02-17T19:36:31.908Z,92.02
2018-02-17T19:39:42.501Z,91.83
2018-02-17T19:42:50.049Z,91.87
2018-02-17T19:45:59.971Z,91.81
2018-02-17T19:49:10.976Z,91.85
2018-02-17T19:52:28.308Z,91.81
2018-02-17T19:55:38.666Z,91.78
2018-02-17T19:58:47.655Z,91.77
2018-02-17T20:01:58.788Z,91.96
2018-02-17T20:05:09.777Z,91.74
2018-02-17T20:08:23.063Z,91.81
2018-02-17T20:11:36.335Z,91.70
2018-02-17T20:14:45.060Z,92.17
2018-02-17T20:17:53.348Z,92.14
2018-02-17T20:21:00.021Z,92.12
2018-02-17T20:24:05.571Z,92.09
2018-02-17T20:27:11.086Z,92.09
2018-02-17T20:30:16.674Z,92.12
2018-02-17T20:33:22.179Z,92.17
2018-02-17T20:36:27.746Z,92.14
2018-02-17T20:39:33.117Z,92.44
2018-02-17T20:42:38.664Z,92.22
2018-02-17T20:45:44.403Z,92.25
2018-02-17T20:48:50.270Z,92.25
2018-02-17T20:51:55.882Z,92.29
2018-02-17T20:55:02.227Z,92.37
2018-02-17T20:58:07.915Z,92.29
2018-02-17T21:01:13.471Z,92.39
2018-02-17T21:04:19.114Z,92.40
2018-02-17T21:07:24.614Z,92.52
2018-02-17T21:10:30.166Z,92.43
2018-02-17T21:13:35.733Z,92.33
2018-02-17T21:16:41.237Z,92.59
2018-02-17T21:19:46.820Z,92.57
2018-02-17T21:22:52.349Z,92.69
2018-02-17T21:25:57.910Z,92.70
2018-02-17T21:29:03.422Z,92.79
2018-02-17T21:32:08.990Z,92.89
2018-02-17T21:35:14.483Z,92.71
2018-02-17T21:38:20.029Z,92.48
2018-02-17T21:41:25.569Z,92.68
2018-02-17T21:44:31.112Z,92.60
2018-02-17T21:47:36.654Z,92.63
2018-02-17T21:51:00.207Z,92.56
2018-02-17T21:54:05.791Z,92.87
2018-02-17T21:57:11.187Z,92.78
2018-02-17T22:00:16.690Z,92.74
2018-02-17T22:03:22.007Z,92.95
2018-02-17T22:06:27.506Z,92.89
2018-02-17T22:09:33.107Z,92.77
2018-02-17T22:12:38.626Z,92.85
2018-02-17T22:15:44.158Z,92.82
2018-02-17T22:18:49.757Z,92.81
2018-02-17T22:21:55.744Z,92.80
2018-02-17T22:25:01.237Z,92.77
2018-02-17T22:28:06.794Z,92.78
2018-02-17T22:31:12.335Z,92.85
2018-02-17T22:34:17.869Z,92.97
2018-02-17T22:37:23.414Z,92.83
2018-02-17T22:40:28.924Z,93.04
2018-02-17T22:43:34.486Z,92.94
2018-02-17T22:46:39.998Z,92.90
2018-02-17T22:49:45.554Z,92.89
2018-02-17T22:52:51.045Z,92.87
2018-02-17T22:55:56.604Z,92.92
2018-02-17T22:59:02.094Z,92.83
2018-02-17T23:02:07.666Z,92.75
2018-02-17T23:05:13.212Z,92.74
2018-02-17T23:08:18.802Z,92.77
2018-02-17T23:11:24.366Z,92.88
2018-02-17T23:14:29.920Z,93.10
2018-02-17T23:17:35.441Z,92.93
2018-02-17T23:20:42.311Z,92.89
2018-02-17T23:23:47.817Z,92.68
2018-02-17T23:26:53.221Z,92.92
2018-02-17T23:29:58.720Z,92.85
2018-02-17T23:33:04.289Z,92.93
2018-02-17T23:36:09.826Z,92.80
2018-02-17T23:39:15.366Z,92.85
2018-02-17T23:42:20.861Z,92.80
2018-02-17T23:45:26.462Z,92.79
2018-02-17T23:48:32.006Z,92.86
2018-02-17T23:51:37.566Z,92.87
2018-02-17T23:54:43.114Z,92.85
2018-02-17T23:57:48.669Z,93.02
